createdAt,value
2023-08-13T00:00:50.972Z,130.48
2023-08-13T00:02:53.683Z,138.90
2023-08-13T00:04:56.354Z,127.57
2023-08-13T00:06:58.964Z,199.18
2023-08-13T00:09:01.757Z,137.98
2023-08-13T00:11:09.507Z,133.73
2023-08-13T00:13:16.260Z,166.93
2023-08-13T00:15:19.663Z,162.32
2023-08-13T00:17:22.501Z,132.60
2023-08-13T00:19:25.055Z,220.02
2023-08-13T00:21:27.640Z,192.63
2023-08-13T00:23:30.523Z,135.38
2023-08-13T00:25:33.024Z,151.50
2023-08-13T00:27:35.662Z,139.85
2023-08-13T00:29:42.094Z,164.02
2023-08-13T00:31:46.311Z,129.65
2023-08-13T00:33:49.219Z,140.65
2023-08-13T00:35:54.878Z,160.50
2023-08-13T00:37:57.469Z,122.68
2023-08-13T00:39:59.992Z,137.68
2023-08-13T00:42:02.732Z,261.67
2023-08-13T00:44:05.917Z,127.07
2023-08-13T00:46:11.511Z,138.43
2023-08-13T00:48:14.671Z,154.77
2023-08-13T00:50:18.713Z,170.95
2023-08-13T00:52:21.529Z,163.80
2023-08-13T00:54:24.492Z,166.60
2023-08-13T00:56:27.123Z,137.68
2023-08-13T00:58:29.722Z,196.38
2023-08-13T01:00:32.648Z,248.20
2023-08-13T01:02:38.480Z,185.80
2023-08-13T01:04:41.021Z,210.90
2023-08-13T01:06:50.917Z,215.90
2023-08-13T01:09:13.751Z,238.07
2023-08-13T01:11:25.216Z,261.33
2023-08-13T01:13:34.860Z,239.52
2023-08-13T01:15:40.961Z,267.02
2023-08-13T01:17:49.220Z,282.73
2023-08-13T01:19:51.774Z,328.92
2023-08-13T01:21:54.947Z,341.83
2023-08-13T01:24:00.344Z,295.47
2023-08-13T01:26:09.216Z,277.60
2023-08-13T01:28:21.934Z,378.38
2023-08-13T01:30:30.442Z,306.25
2023-08-13T01:32:39.918Z,306.60
2023-08-13T01:34:44.679Z,400.10
2023-08-13T01:36:48.114Z,451.77
2023-08-13T01:38:51.546Z,327.35
2023-08-13T01:40:58.105Z,350.65
2023-08-13T01:43:00.864Z,284.15
2023-08-13T01:45:03.633Z,315.42
2023-08-13T01:47:06.676Z,331.10
2023-08-13T01:49:09.356Z,350.48
2023-08-13T01:51:11.882Z,385.88
2023-08-13T01:53:14.407Z,386.48
2023-08-13T01:55:17.230Z,467.30
2023-08-13T01:57:23.360Z,361.07
2023-08-13T01:59:25.960Z,285.10
2023-08-13T02:01:28.694Z,357.90
2023-08-13T02:03:31.581Z,317.15
2023-08-13T02:05:35.064Z,356.20
2023-08-13T02:07:37.819Z,343.70
2023-08-13T02:09:40.406Z,442.33
2023-08-13T02:11:43.007Z,470.90
2023-08-13T02:13:48.575Z,459.75
2023-08-13T02:15:51.990Z,382.17
2023-08-13T02:17:54.742Z,396.60
2023-08-13T02:19:57.384Z,505.40
2023-08-13T02:21:59.884Z,467.02
2023-08-13T02:24:02.499Z,516.20
2023-08-13T02:26:05.059Z,488.88
2023-08-13T02:28:07.735Z,528.50
2023-08-13T02:30:15.932Z,460.13
2023-08-13T02:32:18.442Z,507.88
2023-08-13T02:34:21.072Z,549.67
2023-08-13T02:36:23.634Z,517.17
2023-08-13T02:38:26.221Z,513.67
2023-08-13T02:40:28.828Z,478.13
2023-08-13T02:42:31.325Z,554.00
2023-08-13T02:44:33.948Z,530.58
2023-08-13T02:46:39.306Z,449.77
2023-08-13T02:48:41.986Z,438.63
2023-08-13T02:50:44.588Z,505.58
2023-08-13T02:52:47.363Z,471.40
2023-08-13T02:54:49.945Z,544.53
2023-08-13T02:56:52.522Z,559.50
2023-08-13T02:58:55.106Z,503.23
2023-08-13T03:00:57.748Z,495.55
2023-08-13T03:03:03.127Z,524.13
2023-08-13T03:05:06.411Z,526.67
2023-08-13T03:07:09.015Z,496.13
2023-08-13T03:09:20.670Z,532.78
2023-08-13T03:11:23.320Z,513.63
2023-08-13T03:13:27.031Z,483.90
2023-08-13T03:15:30.978Z,493.00
2023-08-13T03:17:34.809Z,501.75
2023-08-13T03:19:42.161Z,500.13
2023-08-13T03:21:44.815Z,544.08
2023-08-13T03:23:47.738Z,496.95
2023-08-13T03:25:50.840Z,526.97
2023-08-13T03:27:53.484Z,523.30
2023-08-13T03:29:57.347Z,513.88
2023-08-13T03:32:00.046Z,536.53
2023-08-13T03:34:02.766Z,534.58
2023-08-13T03:36:08.279Z,468.00
2023-08-13T03:38:11.619Z,547.15
2023-08-13T03:40:15.234Z,465.45
2023-08-13T03:42:17.919Z,501.20
2023-08-13T03:44:20.555Z,501.00
2023-08-13T03:46:23.179Z,524.85
2023-08-13T03:48:25.776Z,482.77
2023-08-13T03:50:28.309Z,449.63
2023-08-13T03:52:33.482Z,513.38
2023-08-13T03:54:36.292Z,527.22
2023-08-13T03:56:39.012Z,474.65
2023-08-13T03:58:41.697Z,498.73
2023-08-13T04:00:47.569Z,503.98
2023-08-13T04:02:50.839Z,460.92
2023-08-13T04:04:53.850Z,537.75
2023-08-13T04:06:56.446Z,427.15
2023-08-13T04:09:01.632Z,441.08
2023-08-13T04:11:04.238Z,491.77
2023-08-13T04:13:06.875Z,448.20
2023-08-13T04:15:10.313Z,491.17
2023-08-13T04:17:15.209Z,473.48
2023-08-13T04:21:21.733Z,450.05
2023-08-13T04:23:24.299Z,501.30
2023-08-13T04:25:30.243Z,531.27
2023-08-13T04:27:32.904Z,502.65
2023-08-13T04:29:36.026Z,514.22
2023-08-13T04:31:38.723Z,433.67
2023-08-13T04:33:41.365Z,478.77
2023-08-13T04:35:43.976Z,393.92
2023-08-13T04:37:46.699Z,527.70
2023-08-13T04:39:50.678Z,389.30
2023-08-13T04:42:00.637Z,479.55
2023-08-13T04:44:05.199Z,454.35
2023-08-13T04:46:07.866Z,473.60
2023-08-13T04:48:12.489Z,487.83
2023-08-13T04:50:15.798Z,402.40
2023-08-13T04:52:18.357Z,486.20
2023-08-13T04:54:21.133Z,417.13
2023-08-13T04:56:23.696Z,444.25
2023-08-13T04:58:28.960Z,477.98
2023-08-13T05:00:31.746Z,492.50
2023-08-13T05:02:36.422Z,502.90
2023-08-13T05:04:40.754Z,515.03
2023-08-13T05:06:45.272Z,489.30
2023-08-13T05:08:47.862Z,465.90
2023-08-13T05:10:51.165Z,430.73
2023-08-13T05:12:53.796Z,405.85
2023-08-13T05:14:59.318Z,501.98
2023-08-13T05:17:02.181Z,460.05
2023-08-13T05:19:06.039Z,409.42
2023-08-13T05:21:09.342Z,472.25
2023-08-13T05:23:12.076Z,510.45
2023-08-13T05:25:15.392Z,505.90
2023-08-13T05:27:18.145Z,475.33
2023-08-13T05:29:21.038Z,518.15
2023-08-13T05:31:26.560Z,451.15
2023-08-13T05:33:29.130Z,490.38
2023-08-13T05:35:31.862Z,467.75
2023-08-13T05:37:36.611Z,493.58
2023-08-13T05:39:40.594Z,458.73
2023-08-13T05:41:43.277Z,491.15
2023-08-13T05:43:45.855Z,491.27
2023-08-13T05:45:48.493Z,446.45
2023-08-13T05:47:54.723Z,499.63
2023-08-13T05:49:58.621Z,456.88
2023-08-13T05:52:01.289Z,400.30
2023-08-13T05:54:04.418Z,457.67
2023-08-13T05:56:06.920Z,484.08
2023-08-13T05:58:09.504Z,471.20
2023-08-13T06:00:14.501Z,491.13
2023-08-13T06:02:18.155Z,508.98
2023-08-13T06:04:23.368Z,465.15
2023-08-13T06:06:27.117Z,450.25
2023-08-13T06:08:29.836Z,498.83
2023-08-13T06:10:32.511Z,433.42
2023-08-13T06:12:35.239Z,463.55
2023-08-13T06:14:38.058Z,474.40
2023-08-13T06:16:40.807Z,512.00
2023-08-13T06:18:43.479Z,514.08
2023-08-13T06:20:48.547Z,513.53
2023-08-13T06:22:51.926Z,460.95
2023-08-13T06:24:54.561Z,482.02
2023-08-13T06:26:57.227Z,485.55
2023-08-13T06:29:00.084Z,456.08
2023-08-13T06:31:03.810Z,478.42
2023-08-13T06:33:06.662Z,497.73
2023-08-13T06:35:09.961Z,469.20
2023-08-13T06:37:15.179Z,420.67
2023-08-13T06:39:17.922Z,487.42
2023-08-13T06:41:20.505Z,500.42
2023-08-13T06:43:23.261Z,503.95
2023-08-13T06:45:28.165Z,484.45
2023-08-13T06:47:31.826Z,455.73
2023-08-13T06:49:34.359Z,512.75
2023-08-13T06:51:36.990Z,507.10
2023-08-13T06:53:42.420Z,491.50
2023-08-13T06:55:44.912Z,480.17
2023-08-13T06:57:48.092Z,314.83
2023-08-13T06:59:50.666Z,423.65
2023-08-13T07:01:53.314Z,486.13
2023-08-13T07:03:55.988Z,509.75
2023-08-13T07:05:58.637Z,442.83
2023-08-13T07:08:01.360Z,509.13
2023-08-13T07:10:07.392Z,505.42
2023-08-13T07:12:10.011Z,513.05
2023-08-13T07:14:12.596Z,462.25
2023-08-13T07:16:15.261Z,434.40
2023-08-13T07:18:17.954Z,391.25
2023-08-13T07:20:20.511Z,372.80
2023-08-13T07:22:23.272Z,232.73
2023-08-13T07:24:26.681Z,343.30
2023-08-13T07:26:32.905Z,261.40
2023-08-13T07:28:36.110Z,263.92
2023-08-13T07:30:39.034Z,303.58
2023-08-13T07:32:43.131Z,132.00
2023-08-13T07:34:46.577Z,257.40
2023-08-13T07:36:49.156Z,161.10
2023-08-13T07:38:51.754Z,116.20
2023-08-13T07:40:54.671Z,131.73
2023-08-13T07:43:01.828Z,119.80
2023-08-13T07:45:07.446Z,117.32
2023-08-13T07:47:10.297Z,117.60
2023-08-13T07:49:13.241Z,163.43
2023-08-13T07:51:16.552Z,91.82
2023-08-13T07:53:19.111Z,101.43
2023-08-13T07:55:21.973Z,72.10
2023-08-13T07:57:24.479Z,110.93
2023-08-13T07:59:29.829Z,86.63
2023-08-13T08:01:32.526Z,112.85
2023-08-13T08:03:35.133Z,100.63
2023-08-13T08:05:37.755Z,78.30
2023-08-13T08:07:40.374Z,139.50
2023-08-13T08:09:42.940Z,111.45
2023-08-13T08:11:45.546Z,62.60
2023-08-13T08:13:48.101Z,74.78
2023-08-13T08:15:53.224Z,73.05
2023-08-13T08:17:55.897Z,98.80
2023-08-13T08:20:01.234Z,144.90
2023-08-13T08:22:04.730Z,100.30
2023-08-13T08:24:07.668Z,104.38
2023-08-13T08:26:11.019Z,72.80
2023-08-13T08:28:13.804Z,93.88
2023-08-13T08:30:16.286Z,74.32
2023-08-13T08:32:21.563Z,82.03
2023-08-13T08:34:24.740Z,80.20
2023-08-13T08:36:27.425Z,76.17
2023-08-13T08:38:29.975Z,73.65
2023-08-13T08:40:33.987Z,82.50
2023-08-13T08:42:38.139Z,90.55
2023-08-13T08:44:44.043Z,137.00
2023-08-13T08:46:48.678Z,86.38
2023-08-13T08:48:53.953Z,82.75
2023-08-13T08:50:57.560Z,95.90
2023-08-13T08:53:00.105Z,95.00
2023-08-13T08:55:04.189Z,73.47
2023-08-13T08:59:09.859Z,104.10
2023-08-13T09:01:12.591Z,80.65
2023-08-13T09:03:15.110Z,85.47
2023-08-13T09:05:21.726Z,64.35
2023-08-13T09:07:30.430Z,100.68
2023-08-13T09:09:33.358Z,65.55
2023-08-13T09:11:36.551Z,75.30
2023-08-13T09:13:48.841Z,57.70
2023-08-13T09:15:54.929Z,56.13
2023-08-13T09:17:59.570Z,193.20
2023-08-13T09:20:09.126Z,100.38
2023-08-13T09:22:17.657Z,47.78
2023-08-13T09:24:31.738Z,71.22
2023-08-13T09:26:35.084Z,42.00
2023-08-13T09:28:44.424Z,125.88
2023-08-13T09:30:47.612Z,120.40
2023-08-13T09:32:50.651Z,50.93
2023-08-13T09:34:54.068Z,43.97
2023-08-13T09:36:57.942Z,55.28
2023-08-13T09:39:03.346Z,41.92
2023-08-13T09:41:06.746Z,39.13
2023-08-13T09:43:10.530Z,60.80
2023-08-13T09:45:17.148Z,43.85
2023-08-13T09:47:23.554Z,62.03
2023-08-13T09:49:30.723Z,50.00
2023-08-13T09:53:43.526Z,47.05
2023-08-13T09:55:52.547Z,44.13
2023-08-13T09:57:59.955Z,40.53
2023-08-13T10:00:03.195Z,46.05
2023-08-13T10:02:09.561Z,269.02
2023-08-13T10:04:12.822Z,55.97
2023-08-13T10:06:16.133Z,56.22
2023-08-13T10:08:19.352Z,71.32
2023-08-13T10:10:22.276Z,66.68
2023-08-13T10:14:32.213Z,47.33
2023-08-13T10:16:35.022Z,62.30
2023-08-13T10:18:37.725Z,47.38
2023-08-13T10:20:45.107Z,40.97
2023-08-13T10:22:48.131Z,84.43
2023-08-13T10:24:50.688Z,42.00
2023-08-13T10:26:53.961Z,47.58
2023-08-13T10:28:59.246Z,286.02
2023-08-13T10:31:32.909Z,73.05
2023-08-13T10:33:37.155Z,73.50
2023-08-13T10:35:40.682Z,41.20
2023-08-13T10:37:50.879Z,50.85
2023-08-13T10:40:07.851Z,67.22
2023-08-13T10:42:46.580Z,78.80
2023-08-13T10:44:52.391Z,370.98
2023-08-13T10:46:55.595Z,302.25
2023-08-13T10:48:59.290Z,53.47
2023-08-13T10:51:01.850Z,95.43
2023-08-13T10:53:06.930Z,132.85
2023-08-13T10:55:11.088Z,88.47
2023-08-13T10:57:14.002Z,170.90
2023-08-13T10:59:17.711Z,255.85
2023-08-13T11:01:22.859Z,89.93
2023-08-13T11:03:29.746Z,51.58
2023-08-13T11:05:32.921Z,80.25
2023-08-13T11:07:36.982Z,71.05
2023-08-13T11:11:43.806Z,79.22
2023-08-13T11:13:46.955Z,135.32
2023-08-13T11:15:54.264Z,113.40
2023-08-13T11:17:59.521Z,130.98
2023-08-13T11:20:06.688Z,192.60
2023-08-13T11:22:09.916Z,171.65
2023-08-13T11:24:13.537Z,100.30
2023-08-13T11:26:18.196Z,187.68
2023-08-13T11:28:21.612Z,254.05
2023-08-13T11:30:24.296Z,108.38
2023-08-13T11:32:26.895Z,184.40
2023-08-13T11:34:32.112Z,201.98
2023-08-13T11:36:34.743Z,208.02
2023-08-13T11:38:37.547Z,91.47
2023-08-13T11:40:40.216Z,141.40
2023-08-13T11:42:53.224Z,64.45
2023-08-13T11:44:55.910Z,130.93
2023-08-13T11:47:01.831Z,128.02
2023-08-13T11:49:04.542Z,79.13
2023-08-13T11:51:21.212Z,99.22
2023-08-13T11:53:24.314Z,109.68
2023-08-13T11:55:27.457Z,57.03
2023-08-13T11:57:30.078Z,58.00
2023-08-13T11:59:32.698Z,74.20
2023-08-13T12:01:38.592Z,70.60
2023-08-13T12:03:43.857Z,87.45
2023-08-13T12:05:46.642Z,98.80
2023-08-13T12:07:53.613Z,64.07
2023-08-13T12:09:56.129Z,70.68
2023-08-13T12:11:59.397Z,88.70
2023-08-13T12:14:07.885Z,96.25
2023-08-13T12:16:10.569Z,87.15
2023-08-13T12:18:15.322Z,198.82
2023-08-13T12:20:17.987Z,155.50
2023-08-13T12:22:20.488Z,194.93
2023-08-13T12:24:25.528Z,94.75
2023-08-13T12:26:28.309Z,88.72
2023-08-13T12:28:31.676Z,157.52
2023-08-13T12:30:34.252Z,78.50
2023-08-13T12:32:37.046Z,123.22
2023-08-13T12:34:39.589Z,57.60
2023-08-13T12:36:42.088Z,65.97
2023-08-13T12:38:44.656Z,79.72
2023-08-13T12:40:49.877Z,106.38
2023-08-13T12:42:52.537Z,77.53
2023-08-13T12:44:55.117Z,76.38
2023-08-13T12:46:57.674Z,63.35
2023-08-13T12:49:00.223Z,149.80
2023-08-13T12:51:02.919Z,71.65
2023-08-13T12:53:05.873Z,74.95
2023-08-13T12:55:08.704Z,81.47
2023-08-13T12:57:13.898Z,59.20
2023-08-13T12:59:19.193Z,65.53
2023-08-13T13:01:21.996Z,107.40
2023-08-13T13:03:24.624Z,70.50
2023-08-13T13:05:27.204Z,61.83
2023-08-13T13:07:29.802Z,58.40
2023-08-13T13:09:32.552Z,59.50
2023-08-13T13:11:35.451Z,195.88
2023-08-13T13:13:40.752Z,70.22
2023-08-13T13:15:43.743Z,58.00
2023-08-13T13:17:46.235Z,64.78
2023-08-13T13:19:48.719Z,65.95
2023-08-13T13:21:51.335Z,76.05
2023-08-13T13:23:53.780Z,94.45
2023-08-13T13:25:56.273Z,60.97
2023-08-13T13:28:01.672Z,62.35
2023-08-13T13:30:10.358Z,74.45
2023-08-13T13:32:12.837Z,110.57
2023-08-13T13:34:16.168Z,59.10
2023-08-13T13:36:18.780Z,61.75
2023-08-13T13:38:21.669Z,75.88
2023-08-13T13:40:24.745Z,124.30
2023-08-13T13:42:27.235Z,63.47
2023-08-13T13:44:29.760Z,63.22
2023-08-13T13:46:34.943Z,66.22
2023-08-13T13:48:37.560Z,80.60
2023-08-13T13:50:40.161Z,55.92
2023-08-13T13:52:42.835Z,59.72
2023-08-13T13:54:45.353Z,485.48
2023-08-13T13:56:47.802Z,372.60
2023-08-13T13:58:50.304Z,69.32
2023-08-13T14:00:52.958Z,68.78
2023-08-13T14:02:58.253Z,223.77
2023-08-13T14:05:01.107Z,86.40
2023-08-13T14:07:03.647Z,68.05
2023-08-13T14:09:06.414Z,60.95
2023-08-13T14:11:08.961Z,60.22
2023-08-13T14:13:11.452Z,79.32
2023-08-13T14:15:14.092Z,64.18
2023-08-13T14:17:16.534Z,124.78
2023-08-13T14:19:21.772Z,76.53
2023-08-13T14:21:24.376Z,71.88
2023-08-13T14:23:26.909Z,78.55
2023-08-13T14:25:29.723Z,131.55
2023-08-13T14:27:32.309Z,105.50
2023-08-13T14:29:35.042Z,129.85
2023-08-13T14:31:38.518Z,116.00
2023-08-13T14:33:41.274Z,200.95
2023-08-13T14:35:46.480Z,122.20
2023-08-13T14:37:48.939Z,181.90
2023-08-13T14:39:51.487Z,171.25
2023-08-13T14:41:54.466Z,77.10
2023-08-13T14:43:57.214Z,86.68
2023-08-13T14:45:59.773Z,123.00
2023-08-13T14:48:02.516Z,124.93
2023-08-13T14:50:06.114Z,114.05
2023-08-13T14:52:11.319Z,71.00
2023-08-13T14:54:13.953Z,154.18
2023-08-13T14:56:16.560Z,80.32
2023-08-13T14:58:19.064Z,119.75
2023-08-13T15:00:23.356Z,61.28
2023-08-13T15:02:26.632Z,71.55
2023-08-13T15:04:29.213Z,64.65
2023-08-13T15:06:31.844Z,137.60
2023-08-13T15:08:37.336Z,149.20
2023-08-13T15:10:39.986Z,104.65
2023-08-13T15:12:43.815Z,61.78
2023-08-13T15:14:46.660Z,124.28
2023-08-13T15:16:51.598Z,68.20
2023-08-13T15:18:54.193Z,221.45
2023-08-13T15:20:56.868Z,65.28
2023-08-13T15:22:59.423Z,83.97
2023-08-13T15:25:05.949Z,57.47
2023-08-13T15:27:08.882Z,90.00
2023-08-13T15:29:11.548Z,62.03
2023-08-13T15:31:14.107Z,68.68
2023-08-13T15:33:17.371Z,58.22
2023-08-13T15:35:19.908Z,57.33
2023-08-13T15:37:22.543Z,70.43
2023-08-13T15:39:25.367Z,78.15
2023-08-13T15:41:30.484Z,149.75
2023-08-13T15:43:33.035Z,78.53
2023-08-13T15:45:35.510Z,53.75
2023-08-13T15:47:38.156Z,85.05
2023-08-13T15:49:40.667Z,75.18
2023-08-13T15:51:46.267Z,64.20
2023-08-13T15:53:48.810Z,97.95
2023-08-13T15:55:51.397Z,110.18
2023-08-13T15:57:56.596Z,95.97
2023-08-13T16:00:02.020Z,123.72
2023-08-13T16:02:04.615Z,80.65
2023-08-13T16:04:07.615Z,158.82
2023-08-13T16:06:10.153Z,92.00
2023-08-13T16:08:12.814Z,103.47
2023-08-13T16:10:15.864Z,84.60
2023-08-13T16:12:18.870Z,84.10
2023-08-13T16:14:24.166Z,58.97
2023-08-13T16:16:26.721Z,122.30
2023-08-13T16:18:29.237Z,164.43
2023-08-13T16:20:31.901Z,126.93
2023-08-13T16:22:34.491Z,114.22
2023-08-13T16:24:36.985Z,103.25
2023-08-13T16:26:39.509Z,128.32
2023-08-13T16:28:41.956Z,173.65
2023-08-13T16:30:47.062Z,145.73
2023-08-13T16:32:49.645Z,179.85
2023-08-13T16:34:53.150Z,101.68
2023-08-13T16:36:55.602Z,142.65
2023-08-13T16:38:58.052Z,156.57
2023-08-13T16:41:00.666Z,159.52
2023-08-13T16:43:08.568Z,107.55
2023-08-13T16:45:13.881Z,142.43
2023-08-13T16:47:19.208Z,149.35
2023-08-13T16:49:22.939Z,174.73
2023-08-13T16:51:25.994Z,146.18
2023-08-13T16:53:28.548Z,156.80
2023-08-13T16:55:31.068Z,156.60
2023-08-13T16:57:34.892Z,158.23
2023-08-13T16:59:37.437Z,146.45
2023-08-13T17:01:39.939Z,173.73
2023-08-13T17:03:45.178Z,179.45
2023-08-13T17:05:49.280Z,160.55
2023-08-13T17:09:55.416Z,183.55
2023-08-13T17:11:57.971Z,197.52
2023-08-13T17:14:00.462Z,165.55
2023-08-13T17:16:05.430Z,184.73
2023-08-13T17:18:08.878Z,111.88
2023-08-13T17:20:18.536Z,215.27
2023-08-13T17:22:22.559Z,68.43
2023-08-13T17:24:25.144Z,95.95
2023-08-13T17:26:27.704Z,55.45
2023-08-13T17:28:30.232Z,48.38
2023-08-13T17:30:32.682Z,33.72
2023-08-13T17:32:35.290Z,33.92
2023-08-13T17:34:37.767Z,27.52
2023-08-13T17:36:43.688Z,33.37
2023-08-13T17:38:46.183Z,45.65
2023-08-13T17:40:48.723Z,73.95
2023-08-13T17:42:51.247Z,92.22
2023-08-13T17:44:53.786Z,109.47
2023-08-13T17:46:56.509Z,116.53
2023-08-13T17:48:59.003Z,119.60
2023-08-13T17:51:01.535Z,115.70
2023-08-13T17:53:08.497Z,101.30
2023-08-13T17:55:11.302Z,95.00
2023-08-13T17:57:13.915Z,113.35
2023-08-13T17:59:16.444Z,106.78
2023-08-13T18:01:18.879Z,113.18
2023-08-13T18:03:21.454Z,85.10
2023-08-13T18:05:24.063Z,86.75
2023-08-13T18:07:28.088Z,92.55
2023-08-13T18:09:33.397Z,89.97
2023-08-13T18:11:36.109Z,107.72
2023-08-13T18:13:38.634Z,107.57
2023-08-13T18:15:44.006Z,114.18
2023-08-13T18:17:49.836Z,110.68
2023-08-13T18:19:52.630Z,102.00
2023-08-13T18:21:55.068Z,118.50
2023-08-13T18:23:57.906Z,113.97
2023-08-13T18:26:02.906Z,118.97
2023-08-13T18:28:05.642Z,130.02
2023-08-13T18:30:09.291Z,133.63
2023-08-13T18:32:11.874Z,131.18
2023-08-13T18:34:14.416Z,157.25
2023-08-13T18:36:16.902Z,155.80
2023-08-13T18:38:21.084Z,170.65
2023-08-13T18:40:24.447Z,188.10
2023-08-13T18:42:29.623Z,186.00
2023-08-13T18:44:32.071Z,200.13
2023-08-13T18:46:34.624Z,178.43
2023-08-13T18:48:37.290Z,173.43
2023-08-13T18:50:39.860Z,185.63
2023-08-13T18:52:45.385Z,188.38
2023-08-13T18:54:47.894Z,183.55
2023-08-13T18:56:50.503Z,180.93
2023-08-13T18:58:55.598Z,177.50
2023-08-13T19:00:58.246Z,191.23
2023-08-13T19:03:01.109Z,192.45
2023-08-13T19:05:13.057Z,214.43
2023-08-13T19:07:15.802Z,155.30
2023-08-13T19:09:18.355Z,198.20
2023-08-13T19:11:20.829Z,214.40
2023-08-13T19:13:23.437Z,229.57
2023-08-13T19:15:28.721Z,224.82
2023-08-13T19:17:31.295Z,243.85
2023-08-13T19:19:33.978Z,230.57
2023-08-13T19:21:36.566Z,251.25
2023-08-13T19:23:39.164Z,259.55
2023-08-13T19:25:41.662Z,270.50
2023-08-13T19:27:44.226Z,268.98
2023-08-13T19:29:47.154Z,279.20
2023-08-13T19:31:52.296Z,234.18
2023-08-13T19:33:54.798Z,262.55
2023-08-13T19:35:57.316Z,289.38
2023-08-13T19:37:59.882Z,281.50
2023-08-13T19:40:08.517Z,269.10
2023-08-13T19:42:11.118Z,320.33
2023-08-13T19:44:21.017Z,325.80
2023-08-13T19:46:34.415Z,318.10
2023-08-13T19:48:39.601Z,301.77
2023-08-13T19:50:42.110Z,333.40
2023-08-13T19:52:44.635Z,329.73
2023-08-13T19:54:47.217Z,330.33
2023-08-13T19:56:49.750Z,327.33
2023-08-13T19:58:52.288Z,331.10
2023-08-13T20:00:57.130Z,345.73
2023-08-13T20:03:01.105Z,342.80
2023-08-13T20:07:10.124Z,368.08
2023-08-13T20:09:12.611Z,388.45
2023-08-13T20:11:15.702Z,367.55
2023-08-13T20:13:18.408Z,357.98
2023-08-13T20:15:21.469Z,341.85
2023-08-13T20:17:24.699Z,343.90
2023-08-13T20:19:27.299Z,346.48
2023-08-13T20:21:46.403Z,335.65
2023-08-13T20:23:50.316Z,338.92
2023-08-13T20:25:53.968Z,307.10
2023-08-13T20:27:56.509Z,348.00
2023-08-13T20:29:59.031Z,353.95
2023-08-13T20:32:01.502Z,376.10
2023-08-13T20:34:04.504Z,357.98
2023-08-13T20:36:07.509Z,379.08
2023-08-13T20:38:12.548Z,375.40
2023-08-13T20:40:16.333Z,359.65
2023-08-13T20:42:19.398Z,371.40
2023-08-13T20:44:22.205Z,390.40
2023-08-13T20:46:24.741Z,410.00
2023-08-13T20:48:27.304Z,407.02
2023-08-13T20:50:30.044Z,379.42
2023-08-13T20:52:32.632Z,393.35
2023-08-13T20:54:37.766Z,393.70
2023-08-13T20:56:40.333Z,406.27
2023-08-13T20:58:43.050Z,414.08
2023-08-13T21:00:45.984Z,389.80
2023-08-13T21:02:48.782Z,379.52
2023-08-13T21:04:51.675Z,398.25
2023-08-13T21:06:54.253Z,412.20
2023-08-13T21:08:56.879Z,404.98
2023-08-13T21:11:02.091Z,406.77
2023-08-13T21:13:04.829Z,427.90
2023-08-13T21:15:08.318Z,350.80
2023-08-13T21:17:10.886Z,338.58
2023-08-13T21:19:13.513Z,353.00
2023-08-13T21:21:16.104Z,396.30
2023-08-13T21:23:18.628Z,436.10
2023-08-13T21:25:21.192Z,413.50
2023-08-13T21:27:26.294Z,427.35
2023-08-13T21:29:28.801Z,442.73
2023-08-13T21:31:31.350Z,416.25
2023-08-13T21:33:34.062Z,413.15
2023-08-13T21:35:36.661Z,348.27
2023-08-13T21:37:39.114Z,411.50
2023-08-13T21:39:41.630Z,284.58
2023-08-13T21:41:44.868Z,258.98
2023-08-13T21:43:50.550Z,277.23
2023-08-13T21:45:53.135Z,353.42
2023-08-13T21:47:55.684Z,332.10
2023-08-13T21:49:58.278Z,355.63
2023-08-13T21:52:03.185Z,337.88
2023-08-13T21:54:06.059Z,401.35
2023-08-13T21:56:08.623Z,296.85
2023-08-13T21:58:11.135Z,350.42
2023-08-13T22:00:17.481Z,280.63
2023-08-13T22:02:20.431Z,266.42
2023-08-13T22:04:23.207Z,301.20
2023-08-13T22:06:25.772Z,309.05
2023-08-13T22:08:28.459Z,109.50
2023-08-13T22:10:30.995Z,203.05
2023-08-13T22:12:33.551Z,206.20
2023-08-13T22:14:36.289Z,278.88
2023-08-13T22:16:41.683Z,350.52
2023-08-13T22:18:44.223Z,107.28
2023-08-13T22:20:46.696Z,101.75
2023-08-13T22:22:50.901Z,105.00
2023-08-13T22:24:53.773Z,106.35
2023-08-13T22:26:56.292Z,98.97
2023-08-13T22:28:58.926Z,99.60
2023-08-13T22:31:01.421Z,120.38
2023-08-13T22:33:07.084Z,125.35
2023-08-13T22:35:09.924Z,180.65
2023-08-13T22:37:12.551Z,150.10
2023-08-13T22:39:15.312Z,213.77
2023-08-13T22:41:17.804Z,139.60
2023-08-13T22:43:21.129Z,128.17
2023-08-13T22:45:23.652Z,129.80
2023-08-13T22:47:26.532Z,144.18
2023-08-13T22:49:35.978Z,105.47
2023-08-13T22:51:38.552Z,137.20
2023-08-13T22:53:41.154Z,102.28
2023-08-13T22:55:44.570Z,94.82
2023-08-13T22:57:47.532Z,102.43
2023-08-13T22:59:50.060Z,131.30
2023-08-13T23:01:52.732Z,102.10
2023-08-13T23:03:55.285Z,114.55
2023-08-13T23:06:00.445Z,115.35
2023-08-13T23:08:05.654Z,139.48
2023-08-13T23:10:09.401Z,159.00
2023-08-13T23:12:11.941Z,147.02
2023-08-13T23:14:14.433Z,225.85
2023-08-13T23:16:17.105Z,174.68
2023-08-13T23:18:19.898Z,225.38
2023-08-13T23:20:22.498Z,248.32
2023-08-13T23:22:27.714Z,322.55
2023-08-13T23:24:30.183Z,355.98
2023-08-13T23:26:32.724Z,330.15
2023-08-13T23:28:35.288Z,422.23
2023-08-13T23:30:37.825Z,333.23
2023-08-13T23:32:40.375Z,157.40
2023-08-13T23:34:42.988Z,180.35
2023-08-13T23:36:45.868Z,105.95
2023-08-13T23:38:51.045Z,184.57
2023-08-13T23:40:53.732Z,180.82
2023-08-13T23:42:56.256Z,137.82
2023-08-13T23:44:59.725Z,141.60
2023-08-13T23:47:02.252Z,157.10
2023-08-13T23:49:05.114Z,185.70
2023-08-13T23:51:07.669Z,164.73
2023-08-13T23:53:10.282Z,178.68
2023-08-13T23:55:15.667Z,227.27
2023-08-13T23:57:18.215Z,156.73
2023-08-13T23:59:20.704Z,157.60
